Bookmark and Share
Track history (hours):
 

OOCL California

Last reported at 2014-Apr-16 10:33 UTC. Time now 2014-Apr-16 10:42 UTC.
Position N 29°34' E 122°50'.

Length 276 m; beam 40 m; draft 14 m.

Type: Cargo ship. MMSI: 477704000.

NotesDate/timePositionNaut miles runAvg speedWind from/ knotsBaromVisibWave heightAir tempDewpointWater temp
2014-Apr-16 10:33N 29°34' E 122°50'27 8.6
2014-Apr-16 07:28N 29°10' E 122°37'29610.2
2014-Apr-15 02:32N 24°57' E 119°44'45 8.9
2014-Apr-14 21:31N 24°27' E 119°07'48 8.0
2014-Apr-14 15:34N 23°56' E 118°27'8 7.9
2014-Apr-14 14:30N 23°50' E 118°21'250 9.5
2014-Apr-13 12:11N 22°09' E 114°13'1011.5
2014-Apr-13 11:17N 22°18' E 114°06'2 0.2
2014-Apr-12 20:25N 22°20' E 114°07'12 6.1
2014-Apr-12 18:29N 22°09' E 114°14'112 5.0
2014-Apr-11 20:10N 22°18' E 116°14'0 0.4
2014-Apr-11 19:23N 22°18' E 116°14'1 0.4
2014-Apr-11 16:25N 22°18' E 116°15'2 0.4
2014-Apr-11 11:09N 22°17' E 116°17'24 4.8
2014-Apr-11 06:13N 22°16' E 116°43'2112.0
2014-Apr-11 04:27N 22°18' E 117°06'1112.1
2014-Apr-11 03:33N 22°18' E 117°17'1311.9
2014-Apr-11 02:29N 22°19' E 117°31'1111.5
2014-Apr-11 01:33N 22°19' E 117°42'7312.1
2014-Apr-10 19:31N 22°26' E 119°01'4711.7
2014-Apr-10 15:32N 22°31' E 119°51'1211.8
2014-Apr-10 14:33N 22°32' E 120°04'1212.1
2014-Apr-10 13:33N 22°33' E 120°17'2 2.1
2014-Apr-10 12:32N 22°34' E 120°18'0 0.0
2014-Apr-10 11:32N 22°34' E 120°18'0 0.0
2014-Apr-10 10:32N 22°34' E 120°18'0 0.0
2014-Apr-10 09:32N 22°34' E 120°18'0 0.1
2014-Apr-10 08:32N 22°34' E 120°18'0 0.1
2014-Apr-10 07:32N 22°34' E 120°18'0 0.1
2014-Apr-10 06:32N 22°34' E 120°18'0 0.1
2014-Apr-10 05:32N 22°34' E 120°18'0 0.0
2014-Apr-10 04:26N 22°34' E 120°18'0 0.0
2014-Apr-10 03:26N 22°34' E 120°18'0 0.0
2014-Apr-10 02:32N 22°34' E 120°18'0 0.0
2014-Apr-10 01:32N 22°34' E 120°18'0 0.0
2014-Apr-10 00:32N 22°34' E 120°18'0 0.0
2014-Apr-09 23:32N 22°34' E 120°18'0 0.0
2014-Apr-09 22:33N 22°34' E 120°18'3 3.3
2014-Apr-09 21:34N 22°32' E 120°16'0 0.4
2014-Apr-09 20:28N 22°32' E 120°16'0 0.1
2014-Apr-09 19:28N 22°32' E 120°16'0 0.0
2014-Apr-09 18:28N 22°32' E 120°16'0 0.0
2014-Apr-09 17:22N 22°32' E 120°16'0 0.1
2014-Apr-09 16:28N 22°32' E 120°16'0 0.0
2014-Apr-09 15:28N 22°32' E 120°16'0 0.0
2014-Apr-09 14:28N 22°32' E 120°16'0 0.0
2014-Apr-09 13:28N 22°32' E 120°16'0 0.0
2014-Apr-09 12:28N 22°32' E 120°16'0 0.0
2014-Apr-09 11:28N 22°32' E 120°16'0 0.1
2014-Apr-09 10:28N 22°32' E 120°16'0 0.0
2014-Apr-09 09:28N 22°32' E 120°16'0 0.0
2014-Apr-09 08:28N 22°32' E 120°16'0 0.0
2014-Apr-09 07:28N 22°32' E 120°16'0 0.0
2014-Apr-09 06:28N 22°32' E 120°16'0 0.0
2014-Apr-09 05:28N 22°32' E 120°16'0 0.1
2014-Apr-09 04:28N 22°32' E 120°16'0 0.0
2014-Apr-09 03:28N 22°32' E 120°16'0 0.0
2014-Apr-09 02:28N 22°32' E 120°16'0 0.0
2014-Apr-09 01:28N 22°32' E 120°16'0 0.0
2014-Apr-09 00:22N 22°32' E 120°16'0 0.0
2014-Apr-08 23:28N 22°32' E 120°16'0 0.0
2014-Apr-08 22:28N 22°32' E 120°16'0 0.1
2014-Apr-08 21:28N 22°32' E 120°16'0 0.1
2014-Apr-08 20:28N 22°32' E 120°16'0 0.1
2014-Apr-08 19:28N 22°32' E 120°16'0 0.1
2014-Apr-08 18:28N 22°32' E 120°16'0 0.1
2014-Apr-08 17:22N 22°32' E 120°16'0 0.1
2014-Apr-08 16:28N 22°32' E 120°16'0 0.1
2014-Apr-08 15:28N 22°32' E 120°16'0 0.0
2014-Apr-08 14:28N 22°32' E 120°16'0 0.0
2014-Apr-08 13:28N 22°32' E 120°16'0 0.1
2014-Apr-08 12:28N 22°32' E 120°16'0 0.0
2014-Apr-08 11:28N 22°32' E 120°16'0 0.0
2014-Apr-08 10:28N 22°32' E 120°16'0 0.0
2014-Apr-08 09:28N 22°32' E 120°16'0 0.1
2014-Apr-08 08:28N 22°32' E 120°16'0 0.0
2014-Apr-08 07:28N 22°32' E 120°16'0 0.0
2014-Apr-08 06:28N 22°32' E 120°16'0 0.0
2014-Apr-08 05:28N 22°32' E 120°16'0 0.0
2014-Apr-08 04:28N 22°32' E 120°16'0 0.0
2014-Apr-08 03:28N 22°32' E 120°16'0 0.0
2014-Apr-08 02:28N 22°32' E 120°16'0 0.0
2014-Apr-08 01:28N 22°32' E 120°16'0 0.0
2014-Apr-08 00:28N 22°32' E 120°16'0 0.1
2014-Apr-07 23:28N 22°32' E 120°16'0 0.1
2014-Apr-07 22:28N 22°32' E 120°16'0 0.0
2014-Apr-07 21:28N 22°32' E 120°16'0 0.0
2014-Apr-07 20:28N 22°32' E 120°16'0 0.0
2014-Apr-07 19:28N 22°32' E 120°16'0 0.0
2014-Apr-07 17:28N 22°32' E 120°16'0 0.1
2014-Apr-07 16:22N 22°32' E 120°16'0 0.1
2014-Apr-07 15:28N 22°32' E 120°16'0 0.0
2014-Apr-07 14:28N 22°32' E 120°16'0 0.0
2014-Apr-07 13:28N 22°32' E 120°16'0 0.0
2014-Apr-07 12:28N 22°32' E 120°16'0 0.0
2014-Apr-07 11:28N 22°32' E 120°16'0 0.1
2014-Apr-07 10:28N 22°32' E 120°16'0 0.1
2014-Apr-07 09:28N 22°32' E 120°16'0 0.0
2014-Apr-07 08:28N 22°32' E 120°16'0 0.1
2014-Apr-07 07:28N 22°32' E 120°16'0 0.1
2014-Apr-07 06:22N 22°32' E 120°16'0 0.0
2014-Apr-07 05:28N 22°32' E 120°16'0 0.1
2014-Apr-07 04:22N 22°32' E 120°16'0 0.0
2014-Apr-07 03:28N 22°32' E 120°16'0 0.0
2014-Apr-07 02:28N 22°32' E 120°16'0 0.0
2014-Apr-07 01:28N 22°32' E 120°16'0 0.0
2014-Apr-07 00:29N 22°32' E 120°16'0 0.1
2014-Apr-06 23:29N 22°32' E 120°16'0 0.1
2014-Apr-06 22:29N 22°32' E 120°16'0 0.1
2014-Apr-06 21:29N 22°32' E 120°16'0 0.0
2014-Apr-06 20:29N 22°32' E 120°16'0 0.0
2014-Apr-06 19:29N 22°32' E 120°16'0 0.1
2014-Apr-06 18:29N 22°32' E 120°16'0 0.1
2014-Apr-06 17:29N 22°32' E 120°16'0 0.2
2014-Apr-06 16:29N 22°32' E 120°16'0 0.2
2014-Apr-06 15:29N 22°32' E 120°16'2 1.9
2014-Apr-06 14:34N 22°31' E 120°14'1212.3
2014-Apr-06 13:34N 22°20' E 120°08'1413.6
2014-Apr-06 12:34N 22°08' E 120°15'  

Dump ship's entire track history

sailing weather and tide predictions

OOCL California — VRWC8 — position and weather